Time;durP1;ratioP1;P1;durP2;ratioP2;P2;SDS_P1;SDS_P2;PMS_P1;PMS_P2;Temp;Humidity;BMP_temperature;BMP_pressure;BME280_temperature;BME280_humidity;BME280_pressure;Samples;Min_cycle;Max_cycle;Signal;HPM_P1;HPM_P2
2020/12/25 00:02:21;;;;;;;1.73;1.40;;;;;;;3.15;100.00;100455.38;5055789;28;20174;-65
2020/12/25 00:05:05;;;;;;;3.50;2.00;;;;;;;3.27;100.00;100452.03;5055030;28;20214;-65
2020/12/25 00:07:49;;;;;;;2.17;1.30;;;;;;;3.24;100.00;100454.00;5056046;28;20090;-65
2020/12/25 00:10:33;;;;;;;2.28;1.40;;;;;;;3.26;100.00;100457.38;5040842;28;20513;-64
2020/12/25 00:13:17;;;;;;;1.67;1.35;;;;;;;3.27;100.00;100461.69;5055665;28;20044;-65
2020/12/25 00:16:01;;;;;;;2.28;1.63;;;;;;;3.24;100.00;100464.53;5054567;28;20098;-64
2020/12/25 00:18:45;;;;;;;1.85;1.48;;;;;;;3.25;100.00;100461.78;5040763;28;20055;-65
2020/12/25 00:21:31;;;;;;;1.50;1.23;;;;;;;3.30;100.00;100464.13;5055653;28;20052;-65
2020/12/25 00:24:15;;;;;;;2.17;1.60;;;;;;;3.33;100.00;100463.97;5055660;28;20413;-65
2020/12/25 00:27:00;;;;;;;3.28;1.45;;;;;;;3.36;100.00;100466.41;5054605;28;20052;-65
2020/12/25 00:29:44;;;;;;;3.35;1.65;;;;;;;3.34;100.00;100463.03;5055634;28;20051;-65
2020/12/25 00:32:28;;;;;;;2.25;1.35;;;;;;;3.26;100.00;100460.00;5040361;28;20097;-65
2020/12/25 00:35:12;;;;;;;1.73;1.60;;;;;;;3.30;100.00;100458.88;5055437;28;20098;-65
2020/12/25 00:37:58;;;;;;;2.15;1.50;;;;;;;3.30;100.00;100462.38;5054253;28;20118;-64
2020/12/25 00:40:43;;;;;;;2.17;1.70;;;;;;;3.19;100.00;100459.53;5054370;28;20052;-65
2020/12/25 00:43:27;;;;;;;2.15;1.58;;;;;;;3.17;100.00;100464.06;5055395;28;20401;-65
2020/12/25 00:46:13;;;;;;;1.77;1.45;;;;;;;3.23;100.00;100457.56;5055026;28;20072;-65
2020/12/25 00:48:57;;;;;;;2.63;1.50;;;;;;;3.21;100.00;100470.81;5054271;28;20064;-65
2020/12/25 00:51:43;;;;;;;1.55;1.42;;;;;;;3.22;100.00;100461.13;5054909;28;20079;-65
2020/12/25 00:54:27;;;;;;;2.42;1.55;;;;;;;3.19;100.00;100467.44;5054205;28;20084;-65
2020/12/25 00:57:12;;;;;;;1.75;1.30;;;;;;;3.20;100.00;100470.91;5053791;28;20071;-65
2020/12/25 00:59:56;;;;;;;2.25;1.42;;;;;;;3.19;100.00;100470.09;5053973;28;20052;-65
2020/12/25 01:02:40;;;;;;;2.42;1.80;;;;;;;3.18;100.00;100475.44;5054055;28;20102;-65
2020/12/25 01:05:24;;;;;;;1.83;1.23;;;;;;;3.18;100.00;100485.97;5054951;28;20053;-64
2020/12/25 01:08:08;;;;;;;1.65;1.52;;;;;;;3.17;100.00;100479.88;5054803;28;20072;-65
2020/12/25 01:10:52;;;;;;;1.77;1.30;;;;;;;3.22;100.00;100476.94;5053561;28;20138;-65
2020/12/25 01:13:37;;;;;;;1.50;1.27;;;;;;;3.22;100.00;100479.56;5053308;28;20113;-65
2020/12/25 01:16:21;;;;;;;1.75;1.35;;;;;;;3.23;100.00;100483.91;5053321;28;20110;-65
2020/12/25 01:19:05;;;;;;;1.60;1.48;;;;;;;3.22;100.00;100492.72;5053732;28;20124;-65
2020/12/25 01:21:49;;;;;;;1.50;1.40;;;;;;;3.20;100.00;100503.38;5039632;28;20127;-64
2020/12/25 01:24:33;;;;;;;1.40;1.10;;;;;;;3.26;100.00;100508.25;5054292;28;20048;-65
2020/12/25 01:27:17;;;;;;;1.88;1.50;;;;;;;3.25;100.00;100511.00;5054278;28;20051;-64
2020/12/25 01:30:01;;;;;;;2.20;1.48;;;;;;;3.26;100.00;100515.34;5053610;28;20059;-64
2020/12/25 01:32:45;;;;;;;1.35;1.25;;;;;;;3.31;100.00;100515.88;5054085;28;20424;-64
2020/12/25 01:35:30;;;;;;;1.20;1.10;;;;;;;3.31;100.00;100524.66;5039431;28;20066;-64
2020/12/25 01:38:14;;;;;;;2.15;1.45;;;;;;;3.29;100.00;100525.69;5054075;28;20132;-64
2020/12/25 01:40:58;;;;;;;1.58;1.48;;;;;;;3.33;100.00;100532.47;5054064;28;20126;-65
2020/12/25 01:43:42;;;;;;;;;;;;;;;3.36;100.00;100532.28;5053360;28;20087;-65
2020/12/25 01:46:26;;;;;;;2.53;1.45;;;;;;;3.37;100.00;100533.97;5052868;28;19923;-65
2020/12/25 01:49:10;;;;;;;2.03;1.40;;;;;;;3.36;100.00;100545.47;5053829;28;20052;-64
2020/12/25 01:51:55;;;;;;;1.50;1.40;;;;;;;3.39;100.00;100542.63;5038990;28;20048;-64
2020/12/25 01:54:41;;;;;;;2.80;1.70;;;;;;;3.36;100.00;100532.28;5038737;28;20509;-64
2020/12/25 01:57:25;;;;;;;2.65;1.80;;;;;;;3.40;100.00;100546.97;5053199;28;20047;-65
2020/12/25 02:00:09;;;;;;;2.97;1.60;;;;;;;3.39;100.00;100547.91;5038805;28;20051;-65
2020/12/25 02:02:54;;;;;;;1.70;1.60;;;;;;;3.41;100.00;100556.56;5039358;28;20179;-65
2020/12/25 02:05:39;;;;;;;2.50;1.70;;;;;;;3.36;100.00;100554.19;5052581;28;20087;-65
2020/12/25 02:08:23;;;;;;;1.98;1.45;;;;;;;3.37;100.00;100555.06;5052555;28;20048;-65
2020/12/25 02:11:08;;;;;;;2.05;1.60;;;;;;;3.32;100.00;100555.34;5052453;28;20060;-65
2020/12/25 02:13:52;;;;;;;3.08;2.10;;;;;;;3.33;100.00;100561.47;5053740;28;20133;-65
2020/12/25 02:16:36;;;;;;;1.75;1.58;;;;;;;3.33;100.00;100561.47;5052202;28;20183;-65
2020/12/25 02:19:19;;;;;;;3.60;1.90;;;;;;;3.34;100.00;100566.63;5038551;28;20075;-65
2020/12/25 02:22:04;;;;;;;2.70;2.00;;;;;;;3.34;100.00;100565.78;5052597;28;20102;-65
2020/12/25 02:24:48;;;;;;;2.85;1.90;;;;;;;3.40;100.00;100575.94;5052858;28;20547;-65
2020/12/25 02:27:32;;;;;;;4.93;2.13;;;;;;;3.42;100.00;100571.41;5053239;28;20463;-65
2020/12/25 02:30:16;;;;;;;4.00;2.10;;;;;;;3.47;100.00;100572.00;5053468;28;20140;-65
2020/12/25 02:33:00;;;;;;;3.85;2.20;;;;;;;3.45;100.00;100571.25;5038308;28;20098;-65
2020/12/25 02:35:44;;;;;;;2.78;2.00;;;;;;;3.45;100.00;100580.00;5052099;28;20047;-65
2020/12/25 02:38:27;;;;;;;2.38;2.17;;;;;;;3.48;100.00;100576.34;5052380;28;20056;-65
2020/12/25 02:41:11;;;;;;;4.63;2.15;;;;;;;3.46;100.00;100576.41;5053210;28;20095;-65
2020/12/25 02:43:55;;;;;;;4.20;2.30;;;;;;;3.45;100.00;100579.16;5052423;28;20051;-65
2020/12/25 02:46:40;;;;;;;4.18;2.10;;;;;;;3.45;100.00;100581.81;5053091;28;20044;-65
2020/12/25 02:49:23;;;;;;;2.80;2.40;;;;;;;3.44;100.00;100582.75;5053041;28;20187;-64
2020/12/25 02:52:07;;;;;;;5.68;3.05;;;;;;;3.48;100.00;100578.97;5053318;28;20099;-65
2020/12/25 02:54:51;;;;;;;4.00;2.90;;;;;;;3.48;100.00;100586.88;5037801;28;20136;-65
2020/12/25 02:57:35;;;;;;;4.63;2.88;;;;;;;3.45;100.00;100582.63;5052963;28;20052;-65
2020/12/25 03:00:19;;;;;;;3.20;2.60;;;;;;;3.47;100.00;100579.91;5052996;28;20056;-65
2020/12/25 03:03:03;;;;;;;3.78;2.60;;;;;;;3.53;100.00;100592.75;5053268;28;20060;-65
2020/12/25 03:05:47;;;;;;;5.03;3.05;;;;;;;3.49;100.00;100589.44;5052795;28;20067;-65
2020/12/25 03:08:32;;;;;;;8.15;3.63;;;;;;;3.52;100.00;100599.78;5052153;28;20056;-65
2020/12/25 03:11:16;;;;;;;5.25;3.10;;;;;;;3.49;100.00;100596.47;5051974;28;20516;-65
2020/12/25 03:14:00;;;;;;;5.03;3.08;;;;;;;3.55;100.00;100611.94;5052053;28;20068;-65
2020/12/25 03:16:44;;;;;;;6.30;3.47;;;;;;;3.53;100.00;100617.28;5052598;28;20055;-65
2020/12/25 03:19:28;;;;;;;4.45;3.58;;;;;;;3.58;100.00;100617.03;5051726;28;20145;-65
2020/12/25 03:22:12;;;;;;;7.20;3.30;;;;;;;3.57;100.00;100610.88;5052949;28;20060;-64
2020/12/25 03:24:56;;;;;;;5.53;3.53;;;;;;;3.59;100.00;100613.44;5052043;28;20094;-65
2020/12/25 03:27:40;;;;;;;6.55;3.15;;;;;;;3.59;100.00;100618.72;5052923;28;20047;-65
2020/12/25 03:30:24;;;;;;;6.10;3.70;;;;;;;3.56;100.00;100608.38;5051681;28;20052;-65
2020/12/25 03:33:07;;;;;;;4.50;3.38;;;;;;;3.51;100.00;100615.69;5052720;28;20122;-65
2020/12/25 03:35:51;;;;;;;7.97;4.13;;;;;;;3.55;100.00;100611.94;5037786;28;20052;-65
2020/12/25 03:38:35;;;;;;;9.10;3.72;;;;;;;3.52;100.00;100606.84;5055613;28;20044;-65
2020/12/25 03:41:19;;;;;;;6.28;4.13;;;;;;;3.53;100.00;100608.56;5055493;28;20048;-65
2020/12/25 03:44:03;;;;;;;8.68;4.00;;;;;;;3.51;100.00;100616.53;5041484;28;20097;-65
2020/12/25 03:46:47;;;;;;;7.90;4.13;;;;;;;3.59;100.00;100616.06;5056147;28;20051;-65
2020/12/25 03:49:31;;;;;;;5.38;4.15;;;;;;;3.56;100.00;100618.91;5056468;28;20501;-64
2020/12/25 03:52:15;;;;;;;8.95;4.07;;;;;;;3.59;100.00;100616.94;5056046;28;20052;-65
2020/12/25 03:54:59;;;;;;;7.88;4.10;;;;;;;3.51;100.00;100611.28;5056268;28;20043;-66
2020/12/25 03:57:43;;;;;;;6.68;4.05;;;;;;;3.53;100.00;100616.47;5041046;28;20052;-65
2020/12/25 04:00:27;;;;;;;8.63;4.78;;;;;;;3.50;100.00;100624.53;5054882;28;20071;-65
2020/12/25 04:03:12;;;;;;;;;;;;;;;3.51;100.00;100619.19;5041167;28;20098;-65
2020/12/25 04:05:56;;;;;;;9.60;4.93;;;;;;;3.53;100.00;100624.38;5041039;28;19927;-65
2020/12/25 04:08:41;;;;;;;8.45;5.22;;;;;;;3.56;100.00;100629.44;5055028;28;20401;-64
2020/12/25 04:11:25;;;;;;;12.75;5.22;;;;;;;3.57;100.00;100623.22;5040605;28;20107;-65
2020/12/25 04:14:09;;;;;;;6.68;4.47;;;;;;;3.57;100.00;100615.31;5054908;28;20051;-65
2020/12/25 04:16:53;;;;;;;9.70;5.00;;;;;;;3.59;100.00;100623.97;5085819;23;20056;-63
2020/12/25 04:19:37;;;;;;;11.00;4.90;;;;;;;3.59;100.00;100629.25;5075542;28;20098;-64
2020/12/25 04:22:21;;;;;;;7.38;4.57;;;;;;;3.61;100.00;100632.66;5074798;28;20463;-63
2020/12/25 04:25:05;;;;;;;12.68;5.97;;;;;;;3.60;100.00;100641.50;5060587;28;20051;-63
2020/12/25 04:27:49;;;;;;;9.18;5.20;;;;;;;3.61;100.00;100643.19;5075465;28;20471;-63
2020/12/25 04:30:33;;;;;;;7.95;5.47;;;;;;;3.62;100.00;100644.88;5074623;28;20404;-63
2020/12/25 04:33:17;;;;;;;8.35;4.95;;;;;;;3.60;100.00;100652.03;5074442;28;20098;-63
2020/12/25 04:36:01;;;;;;;;;;;;;;;3.59;100.00;100655.63;5075921;28;20128;-64
2020/12/25 04:38:45;;;;;;;9.37;5.73;;;;;;;3.66;100.00;100657.78;5074586;28;19966;-64
2020/12/25 04:41:33;;;;;;;10.23;5.22;;;;;;;3.64;100.00;100659.69;5074420;28;20459;-63
2020/12/25 04:44:17;;;;;;;11.57;5.15;;;;;;;3.60;100.00;100657.31;5074402;28;20052;-63
2020/12/25 04:47:11;;;;;;;8.75;5.30;;;;;;;3.63;100.00;100659.75;5074556;28;20047;-64
2020/12/25 04:49:55;;;;;;;15.50;5.97;;;;;;;3.61;100.00;100669.53;5073574;28;20106;-63
2020/12/25 04:52:39;;;;;;;8.32;5.38;;;;;;;3.59;100.00;100674.06;5075180;28;20132;-63
2020/12/25 04:55:23;;;;;;;10.52;5.50;;;;;;;3.60;100.00;100675.75;5059885;28;20082;-63
2020/12/25 04:58:08;;;;;;;15.65;5.68;;;;;;;3.62;100.00;100671.25;5073884;28;20052;-63
2020/12/25 05:01:06;;;;;;;14.45;5.88;;;;;;;3.57;100.00;100670.69;5074110;28;20052;-63
2020/12/25 05:03:50;;;;;;;8.25;5.53;;;;;;;3.54;100.00;100678.78;5074011;28;20504;-63
2020/12/25 05:06:34;;;;;;;9.85;5.70;;;;;;;3.50;100.00;100677.25;5074612;28;20048;-63
2020/12/25 05:09:22;;;;;;;;;;;;;;;3.46;100.00;100687.13;5074061;28;20470;-63
2020/12/25 05:12:11;;;;;;;10.52;5.63;;;;;;;3.46;100.00;100691.56;5074530;28;20285;-63
2020/12/25 05:14:55;;;;;;;10.90;5.85;;;;;;;3.45;100.00;100689.88;5074459;28;20048;-63
2020/12/25 05:17:40;;;;;;;10.45;5.45;;;;;;;3.45;100.00;100695.97;5073235;28;20413;-63
2020/12/25 05:20:26;;;;;;;11.80;5.38;;;;;;;3.47;100.00;100690.63;5074646;28;20110;-63
2020/12/25 05:23:10;;;;;;;12.43;5.75;;;;;;;3.49;100.00;100697.50;5073609;28;20051;-63
2020/12/25 05:25:57;;;;;;;11.68;6.35;;;;;;;3.49;100.00;100688.72;5073278;28;20047;-64
2020/12/25 05:28:44;;;;;;;10.07;5.40;;;;;;;3.49;100.00;100691.38;5059430;28;20074;-63
2020/12/25 05:31:28;;;;;;;15.98;6.57;;;;;;;3.50;100.00;100693.06;5058940;28;20108;-63
2020/12/25 05:34:12;;;;;;;11.13;6.05;;;;;;;3.51;100.00;100702.66;5073171;28;20079;-63
2020/12/25 05:36:56;;;;;;;;;;;;;;;3.54;100.00;100705.13;5073574;28;20055;-63
2020/12/25 05:39:40;;;;;;;11.37;5.60;;;;;;;3.52;100.00;100707.84;5074050;28;19974;-63
2020/12/25 05:42:24;;;;;;;;;;;;;;;3.51;100.00;100705.28;5073339;28;20055;-63
2020/12/25 05:45:08;;;;;;;9.32;5.50;;;;;;;3.48;100.00;100710.75;5073954;28;19923;-63
2020/12/25 05:48:05;;;;;;;11.07;5.70;;;;;;;3.48;100.00;100702.84;5058644;28;20425;-61
2020/12/25 05:50:49;;;;;;;9.68;5.95;;;;;;;3.46;100.00;100715.28;5073772;28;20047;-62
2020/12/25 05:53:34;;;;;;;11.20;6.45;;;;;;;3.46;100.00;100717.91;5073763;28;20448;-63
2020/12/25 05:56:18;;;;;;;11.88;6.00;;;;;;;3.41;100.00;100715.53;5072830;28;20055;-63
2020/12/25 05:59:03;;;;;;;12.13;5.32;;;;;;;3.40;100.00;100712.97;5072830;28;20516;-63
2020/12/25 06:01:47;;;;;;;12.13;5.72;;;;;;;3.41;100.00;100719.94;5072837;28;20124;-64
2020/12/25 06:04:32;;;;;;;;;;;;;;;3.41;100.00;100717.31;5074276;28;20101;-63
2020/12/25 06:07:20;;;;;;;10.32;5.90;;;;;;;3.40;100.00;100726.16;5073710;28;20319;-63
2020/12/25 06:10:04;;;;;;;10.63;6.15;;;;;;;3.37;100.00;100723.72;5073502;28;20093;-63
2020/12/25 06:12:49;;;;;;;10.63;5.90;;;;;;;3.35;100.00;100726.41;5072647;28;20051;-63
2020/12/25 06:15:33;;;;;;;10.40;5.88;;;;;;;3.32;100.00;100733.66;5073657;28;20397;-63
2020/12/25 06:18:29;;;;;;;10.75;6.15;;;;;;;3.32;100.00;100737.16;5073676;28;20078;-64
2020/12/25 06:21:17;;;;;;;10.05;5.70;;;;;;;3.29;100.00;100742.59;5072335;28;20047;-63
2020/12/25 06:24:02;;;;;;;9.93;5.65;;;;;;;3.29;100.00;100747.00;5072577;28;20074;-64
2020/12/25 06:26:50;;;;;;;9.15;5.45;;;;;;;3.29;100.00;100749.63;5073514;28;20110;-63
2020/12/25 06:29:34;;;;;;;14.30;5.53;;;;;;;3.27;100.00;100760.28;5073272;28;20102;-64
2020/12/25 06:32:19;;;;;;;13.93;5.30;;;;;;;3.29;100.00;100768.94;5072504;28;20139;-63
2020/12/25 06:35:04;;;;;;;8.70;5.35;;;;;;;3.28;100.00;100766.38;5073467;28;20120;-64
2020/12/25 06:37:49;;;;;;;10.00;5.80;;;;;;;3.28;100.00;100769.03;5072137;28;20118;-63
2020/12/25 06:40:33;;;;;;;10.73;5.75;;;;;;;3.27;100.00;100778.72;5072144;28;20139;-63
2020/12/25 06:43:18;;;;;;;8.95;5.65;;;;;;;3.27;100.00;100783.13;5073134;28;20074;-63
2020/12/25 06:46:03;;;;;;;9.75;6.00;;;;;;;3.27;100.00;100788.41;5072046;28;20416;-64
2020/12/25 06:48:50;;;;;;;11.02;5.63;;;;;;;3.29;100.00;100794.44;5073101;28;20052;-63
2020/12/25 06:51:44;;;;;;;13.02;6.43;;;;;;;3.28;100.00;100798.88;5072269;28;20047;-63
2020/12/25 06:54:38;;;;;;;8.57;5.20;;;;;;;3.26;100.00;100797.25;5072974;28;20467;-63
2020/12/25 06:57:26;;;;;;;12.65;6.28;;;;;;;3.26;100.00;100806.00;5072948;28;20039;-63
2020/12/25 07:00:10;;;;;;;11.25;5.55;;;;;;;3.30;100.00;100801.41;5071942;28;20532;-64
2020/12/25 07:02:54;;;;;;;10.43;5.45;;;;;;;3.28;100.00;100804.13;5073219;28;20048;-63
2020/12/25 07:05:48;;;;;;;7.47;5.18;;;;;;;3.29;100.00;100810.25;5072331;28;20074;-64
2020/12/25 07:08:33;;;;;;;;;;;;;;;3.30;100.00;100831.25;5073423;28;20147;-63
2020/12/25 07:11:18;;;;;;;11.52;5.78;;;;;;;3.28;100.00;100819.09;5072461;28;20019;-63
2020/12/25 07:14:03;;;;;;;14.63;6.38;;;;;;;3.27;100.00;100823.53;5076096;28;20047;-63
2020/12/25 07:16:47;;;;;;;10.48;5.80;;;;;;;3.27;100.00;100825.28;5075661;28;20416;-64
2020/12/25 07:19:35;;;;;;;9.57;6.05;;;;;;;3.25;100.00;100821.91;5076780;28;20075;-63
2020/12/25 07:22:20;;;;;;;10.15;5.68;;;;;;;3.27;100.00;100833.19;5076644;28;20094;-63
2020/12/25 07:25:08;;;;;;;11.27;5.82;;;;;;;3.30;100.00;100838.28;5076611;28;20114;-63
2020/12/25 07:27:55;;;;;;;10.93;6.15;;;;;;;3.24;100.00;100834.22;5075508;28;20046;-63
2020/12/25 07:30:39;;;;;;;10.60;5.95;;;;;;;3.25;100.00;100841.19;5076800;28;20541;-63
2020/12/25 07:33:24;;;;;;;7.90;5.50;;;;;;;3.28;100.00;100845.44;5075428;28;20042;-64
2020/12/25 07:36:11;;;;;;;9.77;5.43;;;;;;;3.32;100.00;100841.69;5076577;28;20050;-63
2020/12/25 07:39:00;;;;;;;13.20;5.57;;;;;;;3.31;100.00;100845.25;5076635;28;20052;-63
2020/12/25 07:41:45;;;;;;;12.68;5.35;;;;;;;3.27;100.00;100846.38;5075320;28;20055;-63
2020/12/25 07:44:29;;;;;;;9.23;5.75;;;;;;;3.29;100.00;100852.41;5075486;28;20051;-63
2020/12/25 07:47:13;;;;;;;10.43;6.32;;;;;;;3.28;100.00;100850.72;5076225;28;20100;-63
2020/12/25 07:49:57;;;;;;;9.73;6.13;;;;;;;3.29;100.00;100849.78;5075163;28;20048;-63
2020/12/25 07:52:42;;;;;;;7.88;5.35;;;;;;;3.29;100.00;100862.94;5075278;28;20052;-63
2020/12/25 07:55:28;;;;;;;12.18;6.60;;;;;;;3.30;100.00;100856.72;5075046;28;20117;-63
2020/12/25 07:58:13;;;;;;;11.52;6.32;;;;;;;3.33;100.00;100864.50;5076003;28;20047;-63
2020/12/25 08:00:58;;;;;;;11.23;6.28;;;;;;;3.36;100.00;100859.03;5075000;28;20113;-63
2020/12/25 08:03:42;;;;;;;10.93;6.85;;;;;;;3.34;100.00;100872.28;5076130;28;20043;-63
2020/12/25 08:06:28;;;;;;;9.48;5.78;;;;;;;3.35;100.00;100879.25;5075769;28;20417;-64
2020/12/25 08:09:15;;;;;;;15.43;7.10;;;;;;;3.40;100.00;100881.66;5075060;28;20235;-64
2020/12/25 08:11:59;;;;;;;12.07;7.18;;;;;;;3.49;100.00;100881.13;5075963;28;20044;-62
2020/12/25 08:14:44;;;;;;;12.75;7.85;;;;;;;3.60;100.00;100884.03;5075990;28;20051;-63
2020/12/25 08:17:28;;;;;;;15.38;7.90;;;;;;;3.66;100.00;100883.69;5075509;28;20051;-64
2020/12/25 08:20:12;;;;;;;11.57;7.07;;;;;;;3.72;100.00;100883.34;5074887;28;20106;-63
2020/12/25 08:23:03;;;;;;;11.52;7.18;;;;;;;3.82;100.00;100889.78;5074311;28;20046;-64
2020/12/25 08:25:54;;;;;;;11.77;7.93;;;;;;;3.88;100.00;100886.81;5074692;28;20044;-64
2020/12/25 08:28:41;;;;;;;12.77;8.15;;;;;;;3.92;100.00;100891.84;5075845;28;20102;-64
2020/12/25 08:31:25;;;;;;;13.32;7.53;;;;;;;3.98;100.00;100888.81;5075613;28;20527;-63
2020/12/25 08:34:14;;;;;;;11.88;7.75;;;;;;;4.04;100.00;100895.56;5074439;28;20097;-63
2020/12/25 08:36:59;;;;;;;11.00;6.50;;;;;;;4.05;100.00;100894.63;5074487;28;20118;-64
2020/12/25 08:39:43;;;;;;;12.38;7.18;;;;;;;4.11;100.00;100897.75;5075393;28;20047;-63
2020/12/25 08:42:27;;;;;;;10.77;6.78;;;;;;;4.16;100.00;100900.13;5074190;28;20132;-63
2020/12/25 08:45:16;;;;;;;;;;;;;;;4.18;100.00;100908.81;5075839;28;20051;-64
2020/12/25 08:48:05;;;;;;;10.27;6.15;;;;;;;4.15;100.00;100909.00;5073947;28;19966;-63
2020/12/25 08:50:50;;;;;;;11.88;6.55;;;;;;;4.23;100.00;100914.66;5074543;28;20055;-63
2020/12/25 08:53:34;;;;;;;10.25;6.57;;;;;;;4.27;100.00;100918.84;5075257;28;20554;-63
2020/12/25 08:56:20;;;;;;;8.77;6.50;;;;;;;4.30;100.00;100927.44;5073830;28;20119;-62
2020/12/25 08:59:07;;;;;;;10.50;6.32;;;;;;;4.35;100.00;100927.16;5060302;28;20102;-65
2020/12/25 09:01:52;;;;;;;8.77;5.15;;;;;;;4.36;100.00;100926.22;5073724;28;20527;-66
2020/12/25 09:04:36;;;;;;;10.00;6.15;;;;;;;4.34;100.00;100931.56;5074779;28;20051;-65
2020/12/25 09:07:20;;;;;;;6.47;4.90;;;;;;;4.46;100.00;100935.28;5074979;28;20096;-64
2020/12/25 09:10:03;;;;;;;8.85;5.25;;;;;;;4.43;100.00;100941.59;5074813;28;20059;-65
2020/12/25 09:12:47;;;;;;;11.65;5.50;;;;;;;4.38;100.00;100945.44;5074819;28;20063;-65
2020/12/25 09:15:32;;;;;;;9.52;4.75;;;;;;;4.46;100.00;100959.06;5074038;28;20451;-65
2020/12/25 09:18:16;;;;;;;9.73;5.93;;;;;;;4.45;100.00;100949.44;5074468;28;20181;-65
2020/12/25 09:21:00;;;;;;;8.70;5.22;;;;;;;4.45;100.00;100960.00;5074405;28;20051;-65
2020/12/25 09:23:45;;;;;;;9.95;5.88;;;;;;;4.53;100.00;100965.66;5073589;28;20079;-64
2020/12/25 09:26:29;;;;;;;10.15;5.72;;;;;;;4.53;100.00;100965.66;5074202;28;20090;-65
2020/12/25 09:29:14;;;;;;;6.53;4.90;;;;;;;4.57;100.00;100972.47;5073527;28;20055;-65
2020/12/25 09:31:58;;;;;;;7.75;4.82;;;;;;;4.61;100.00;100976.63;5073078;28;20417;-63
2020/12/25 09:34:42;;;;;;;6.32;4.38;;;;;;;4.57;100.00;100975.13;5072874;28;20047;-65
2020/12/25 09:37:26;;;;;;;7.43;5.50;;;;;;;4.55;100.00;100983.13;5073988;28;20569;-65
2020/12/25 09:40:12;;;;;;;7.97;4.95;;;;;;;4.61;100.00;100976.63;5074294;28;20155;-65
2020/12/25 09:42:56;;;;;;;7.93;4.82;;;;;;;4.65;100.00;100981.66;5073915;28;20503;-65
2020/12/25 09:45:40;;;;;;;5.85;4.38;;;;;;;4.70;100.00;100989.31;5073866;28;20083;-66
2020/12/25 09:48:25;;;;;;;7.63;4.30;;;;;;;4.68;100.00;100983.25;5073858;28;20412;-65
2020/12/25 09:51:09;;;;;;;6.95;4.63;;;;;;;4.73;100.00;100992.63;5073421;28;20047;-65
2020/12/25 09:53:54;;;;;;;5.95;4.22;;;;;;;4.83;100.00;101000.84;5073617;28;20416;-65
2020/12/25 09:56:38;;;;;;;6.15;4.32;;;;;;;4.79;100.00;100991.41;5073963;28;20043;-65
2020/12/25 09:59:23;;;;;;;7.45;4.43;;;;;;;4.85;99.71;100996.31;5073648;28;20464;-65
2020/12/25 10:02:07;;;;;;;7.05;4.47;;;;;;;4.93;97.65;101001.03;5073931;28;20086;-65
2020/12/25 10:04:52;;;;;;;6.13;4.15;;;;;;;5.03;94.55;100996.91;5074131;28;20128;-62
2020/12/25 10:07:36;;;;;;;6.57;4.43;;;;;;;5.17;95.49;101002.25;5058424;28;20047;-65
2020/12/25 10:10:21;;;;;;;6.50;4.68;;;;;;;5.18;91.99;100996.00;5073521;28;20420;-66
2020/12/25 10:13:07;;;;;;;7.82;4.15;;;;;;;5.22;91.77;100996.69;5073455;28;20473;-65
2020/12/25 10:15:52;;;;;;;7.88;4.20;;;;;;;5.10;89.08;100987.69;5072230;28;20139;-65
2020/12/25 10:18:36;;;;;;;5.10;3.75;;;;;;;5.23;89.84;100998.38;5174707;22;20064;-65
2020/12/25 10:21:20;;;;;;;8.18;4.70;;;;;;;5.38;88.94;100998.28;5058538;28;20060;-65
2020/12/25 10:24:05;;;;;;;7.40;3.92;;;;;;;5.46;87.49;100997.81;5073728;28;20082;-65
2020/12/25 10:26:49;;;;;;;4.82;4.00;;;;;;;5.85;89.64;100995.38;5073531;28;20039;-65
2020/12/25 10:29:33;;;;;;;6.75;4.07;;;;;;;6.11;84.62;101000.69;5073298;28;20062;-65
2020/12/25 10:32:16;;;;;;;4.97;3.38;;;;;;;6.38;81.47;100993.59;5073411;28;20408;-65
2020/12/25 10:35:00;;;;;;;6.85;3.58;;;;;;;7.13;75.71;100987.59;5072473;28;20055;-65
2020/12/25 10:37:44;;;;;;;5.70;3.50;;;;;;;7.89;73.59;100996.25;5073247;28;20100;-65
2020/12/25 10:40:29;;;;;;;5.82;3.45;;;;;;;8.40;67.01;100991.63;5073381;28;20048;-64
2020/12/25 10:43:13;;;;;;;5.68;3.40;;;;;;;8.25;67.81;100998.09;5073425;28;20048;-64
2020/12/25 10:45:57;;;;;;;7.10;3.38;;;;;;;8.05;68.52;101003.97;5072605;28;20098;-64
2020/12/25 10:48:42;;;;;;;4.57;3.08;;;;;;;7.91;70.93;100998.78;5073272;28;20416;-64
2020/12/25 10:51:25;;;;;;;5.30;3.30;;;;;;;7.66;67.51;101002.34;5072995;28;20044;-64
2020/12/25 10:54:09;;;;;;;3.67;2.80;;;;;;;7.55;69.43;101007.53;5073319;28;20051;-64
2020/12/25 10:56:54;;;;;;;5.30;2.97;;;;;;;7.64;72.17;101001.59;5071926;28;20141;-65
2020/12/25 10:59:37;;;;;;;6.25;3.40;;;;;;;7.36;70.53;101008.94;5072209;28;20056;-65
2020/12/25 11:02:21;;;;;;;4.97;3.25;;;;;;;7.18;71.50;101012.84;5072211;28;20097;-65
2020/12/25 11:05:05;;;;;;;5.68;2.95;;;;;;;7.18;71.92;101015.50;5072179;28;20047;-65
2020/12/25 11:07:49;;;;;;;6.75;3.38;;;;;;;7.29;72.81;101018.25;5072011;28;20047;-65
2020/12/25 11:10:33;;;;;;;5.30;3.55;;;;;;;7.46;73.19;101023.25;5073143;28;20098;-65
2020/12/25 11:13:18;;;;;;;5.93;3.20;;;;;;;7.39;71.08;101029.94;5057891;28;20079;-65
2020/12/25 11:16:02;;;;;;;7.57;4.90;;;;;;;7.41;73.51;101024.53;5073022;28;20052;-65
2020/12/25 11:18:46;;;;;;;6.00;3.92;;;;;;;7.30;71.94;101027.91;5071631;28;20055;-65
2020/12/25 11:21:31;;;;;;;4.20;2.85;;;;;;;6.90;70.78;101022.78;5072029;28;20165;-65
2020/12/25 11:24:15;;;;;;;3.65;3.33;;;;;;;6.92;72.44;101021.75;5072763;28;20048;-65
2020/12/25 11:26:59;;;;;;;3.80;2.83;;;;;;;6.68;74.05;101027.81;5072820;28;20094;-65
2020/12/25 11:29:43;;;;;;;4.35;3.28;;;;;;;6.67;73.36;101021.66;5073000;28;20471;-65
2020/12/25 11:32:27;;;;;;;4.07;2.70;;;;;;;6.80;71.21;101019.91;5072895;28;20048;-65
2020/12/25 11:35:10;;;;;;;6.38;3.10;;;;;;;8.78;67.59;101008.25;5072911;28;20530;-65
2020/12/25 11:37:54;;;;;;;;;;;;;;;9.45;60.56;101010.09;5071938;28;20048;-65
2020/12/25 11:40:38;;;;;;;3.60;2.70;;;;;;;11.44;55.85;100993.41;5071669;28;19958;-65
2020/12/25 11:43:22;;;;;;;7.25;3.65;;;;;;;13.18;51.02;100997.09;5072881;28;20052;-65
2020/12/25 11:46:07;;;;;;;2.60;2.20;;;;;;;13.54;47.52;101001.63;5072772;28;20118;-66
2020/12/25 11:48:52;;;;;;;8.35;5.40;;;;;;;12.26;49.75;101001.22;5072411;28;20511;-65
2020/12/25 11:51:35;;;;;;;4.07;2.47;;;;;;;10.94;50.88;101005.72;5071579;28;20098;-64
2020/12/25 11:54:19;;;;;;;3.78;2.05;;;;;;;10.17;54.61;101014.94;5071725;28;20063;-65
2020/12/25 11:57:03;;;;;;;2.78;2.28;;;;;;;9.36;55.60;101016.16;5072713;28;20052;-65
2020/12/25 11:59:47;;;;;;;5.55;2.15;;;;;;;8.53;57.58;101011.00;5074882;28;20055;-65
2020/12/25 12:02:31;;;;;;;4.13;2.70;;;;;;;8.82;58.71;101010.56;5060775;28;20055;-65
2020/12/25 12:05:15;;;;;;;5.70;3.80;;;;;;;8.57;58.25;101009.84;5075796;28;20055;-65
2020/12/25 12:07:59;;;;;;;22.30;8.35;;;;;;;8.10;61.01;101015.94;5074622;28;20098;-65
2020/12/25 12:10:43;;;;;;;6.47;3.28;;;;;;;7.79;61.37;101016.44;5074568;28;20051;-65
2020/12/25 12:13:27;;;;;;;5.47;2.50;;;;;;;7.44;61.46;101017.22;5075765;28;20640;-65
2020/12/25 12:16:15;;;;;;;3.28;2.22;;;;;;;7.03;63.77;101016.56;5075943;28;20110;-65
2020/12/25 12:18:59;;;;;;;7.70;3.80;;;;;;;7.04;64.30;101012.94;5075410;28;20512;-65
2020/12/25 12:21:43;;;;;;;3.65;2.38;;;;;;;7.10;63.37;101017.00;5074567;28;20417;-65
2020/12/25 12:24:28;;;;;;;3.83;2.67;;;;;;;7.05;65.22;101022.59;5075752;28;20106;-65
2020/12/25 12:27:12;;;;;;;3.42;2.60;;;;;;;7.09;64.55;101018.78;5075398;28;20106;-65
2020/12/25 12:29:56;;;;;;;8.07;4.20;;;;;;;8.79;59.79;101012.59;5075785;28;20059;-65
2020/12/25 12:32:40;;;;;;;15.73;7.22;;;;;;;10.96;55.11;101005.63;5075295;28;20524;-65
2020/12/25 12:35:24;;;;;;;5.78;3.80;;;;;;;13.26;48.33;100999.91;5075600;28;20103;-65
2020/12/25 12:38:08;;;;;;;3.78;2.50;;;;;;;14.22;42.76;101006.63;5075540;28;20554;-66
2020/12/25 12:40:52;;;;;;;6.35;3.97;;;;;;;14.52;43.46;101003.59;5075024;28;20051;-65
2020/12/25 12:43:36;;;;;;;4.10;1.83;;;;;;;13.45;45.71;101013.25;5075214;28;20048;-65
2020/12/25 12:46:20;;;;;;;3.40;1.73;;;;;;;11.95;47.37;101013.81;5074366;28;20098;-65
2020/12/25 12:49:03;;;;;;;4.20;3.78;;;;;;;10.39;51.28;101011.28;5075388;28;20094;-65